createdAt,value
2019-06-27T00:00:38.738Z,22.60
2019-06-27T00:03:06.188Z,22.47
2019-06-27T00:05:33.702Z,22.26
2019-06-27T00:08:02.182Z,22.27
2019-06-27T00:10:29.692Z,22.14
2019-06-27T00:12:57.300Z,22.08
2019-06-27T00:15:24.773Z,21.95
2019-06-27T00:17:52.243Z,21.93
2019-06-27T00:20:21.606Z,21.80
2019-06-27T00:22:49.261Z,21.78
2019-06-27T00:25:16.817Z,21.75
2019-06-27T00:27:44.410Z,21.61
2019-06-27T00:30:11.936Z,21.54
2019-06-27T00:32:39.382Z,21.52
2019-06-27T00:35:06.838Z,21.33
2019-06-27T00:37:34.301Z,21.30
2019-06-27T00:40:02.860Z,21.31
2019-06-27T00:42:30.333Z,21.36
2019-06-27T00:44:57.831Z,21.34
2019-06-27T00:47:25.285Z,21.36
2019-06-27T00:49:52.876Z,21.27
2019-06-27T00:52:20.467Z,21.32
2019-06-27T00:54:47.931Z,21.28
2019-06-27T00:57:15.417Z,21.33
2019-06-27T00:59:42.960Z,21.31
2019-06-27T01:02:10.402Z,21.28
2019-06-27T01:04:37.874Z,21.11
2019-06-27T01:07:05.309Z,21.10
2019-06-27T01:09:33.294Z,20.98
2019-06-27T01:12:00.756Z,20.96
2019-06-27T01:14:28.248Z,20.96
2019-06-27T01:16:55.706Z,20.91
2019-06-27T01:19:23.354Z,20.94
2019-06-27T01:21:50.846Z,20.85
2019-06-27T01:24:18.284Z,20.79
2019-06-27T01:26:45.730Z,20.85
2019-06-27T01:29:13.230Z,20.83
2019-06-27T01:31:41.595Z,20.90
2019-06-27T01:34:09.169Z,20.89
2019-06-27T01:36:36.631Z,20.85
2019-06-27T01:39:04.197Z,20.80
2019-06-27T01:41:31.742Z,20.76
2019-06-27T01:43:59.224Z,20.74
2019-06-27T01:46:27.187Z,20.76
2019-06-27T01:48:54.709Z,20.67
2019-06-27T01:51:22.198Z,20.67
2019-06-27T01:53:49.720Z,20.71
2019-06-27T01:56:17.259Z,20.67
2019-06-27T01:58:44.771Z,20.65
2019-06-27T02:01:12.178Z,20.63
2019-06-27T02:03:39.806Z,20.49
2019-06-27T02:06:07.258Z,20.54
2019-06-27T02:08:34.717Z,20.49
2019-06-27T02:11:02.298Z,20.38
2019-06-27T02:13:29.806Z,20.37
2019-06-27T02:15:57.339Z,20.22
2019-06-27T02:18:25.098Z,20.07
2019-06-27T02:20:52.566Z,20.07
2019-06-27T02:23:20.534Z,20.05
2019-06-27T02:25:48.005Z,20.07
2019-06-27T02:28:15.478Z,20.10
2019-06-27T02:30:43.273Z,20.11
2019-06-27T02:33:10.728Z,20.04
2019-06-27T02:35:38.253Z,20.00
2019-06-27T02:38:05.779Z,19.92
2019-06-27T02:40:33.219Z,19.94
2019-06-27T02:43:00.820Z,19.94
2019-06-27T02:45:28.308Z,19.84
2019-06-27T02:47:55.793Z,19.78
2019-06-27T02:50:23.418Z,19.70
2019-06-27T02:52:50.942Z,19.70
2019-06-27T02:55:18.559Z,19.65
2019-06-27T02:57:46.412Z,19.70
2019-06-27T03:00:14.082Z,19.56
2019-06-27T03:02:41.756Z,19.57
2019-06-27T03:05:09.623Z,19.61
2019-06-27T03:07:37.118Z,19.48
2019-06-27T03:10:06.729Z,19.53
2019-06-27T03:12:34.253Z,19.48
2019-06-27T03:15:01.976Z,19.49
2019-06-27T03:17:29.424Z,19.31
2019-06-27T03:19:58.603Z,19.25
2019-06-27T03:22:27.269Z,19.37
2019-06-27T03:24:56.207Z,19.31
2019-06-27T03:27:23.780Z,19.23
2019-06-27T03:29:52.129Z,19.29
2019-06-27T03:32:20.056Z,19.21
2019-06-27T03:34:49.082Z,19.09
2019-06-27T03:37:18.356Z,19.09
2019-06-27T03:39:46.422Z,19.19
2019-06-27T03:42:14.396Z,19.24
2019-06-27T03:44:42.030Z,19.17
2019-06-27T03:47:10.044Z,19.24
2019-06-27T03:49:37.760Z,19.22
2019-06-27T03:52:05.569Z,19.19
2019-06-27T03:54:34.956Z,19.15
2019-06-27T03:57:03.537Z,19.17
2019-06-27T03:59:33.785Z,19.24
2019-06-27T04:02:02.378Z,19.28
2019-06-27T04:04:30.790Z,19.26
2019-06-27T04:07:00.013Z,19.30
2019-06-27T04:09:28.006Z,19.31
2019-06-27T04:11:56.450Z,19.28
2019-06-27T04:14:24.329Z,19.21
2019-06-27T04:16:52.037Z,19.24
2019-06-27T04:19:19.823Z,19.20
2019-06-27T04:21:48.663Z,19.10
2019-06-27T04:24:16.933Z,19.13
2019-06-27T04:26:45.598Z,19.08
2019-06-27T04:29:32.154Z,19.11
2019-06-27T04:31:42.204Z,19.07
2019-06-27T04:34:09.917Z,19.09
2019-06-27T04:36:37.978Z,19.02
2019-06-27T04:39:05.730Z,19.05
2019-06-27T04:41:34.924Z,19.13
2019-06-27T04:44:03.702Z,19.10
2019-06-27T04:46:32.179Z,19.14
2019-06-27T04:48:59.932Z,19.03
2019-06-27T04:51:27.885Z,19.00
2019-06-27T04:56:32.903Z,18.92
2019-06-27T04:59:01.422Z,18.85
2019-06-27T05:01:31.808Z,18.97
2019-06-27T05:03:59.841Z,18.93
2019-06-27T05:06:28.281Z,18.94
2019-06-27T05:08:57.949Z,18.88
2019-06-27T05:11:26.267Z,18.91
2019-06-27T05:14:00.263Z,18.97
2019-06-27T05:16:28.675Z,18.93
2019-06-27T05:18:57.525Z,18.95
2019-06-27T05:21:25.699Z,18.98
2019-06-27T05:23:54.418Z,19.03
2019-06-27T05:26:22.813Z,19.03
2019-06-27T05:28:50.971Z,19.12
2019-06-27T05:31:18.549Z,19.19
2019-06-27T05:33:47.282Z,19.23
2019-06-27T05:36:15.772Z,19.24
2019-06-27T05:38:43.827Z,19.28
2019-06-27T05:41:11.676Z,19.29
2019-06-27T05:43:39.535Z,19.33
2019-06-27T05:46:07.692Z,19.39
2019-06-27T05:48:35.634Z,19.43
2019-06-27T05:51:05.376Z,19.33
2019-06-27T05:53:34.616Z,19.44
2019-06-27T05:56:03.555Z,19.45
2019-06-27T05:58:32.669Z,19.38
2019-06-27T06:01:00.964Z,19.42
2019-06-27T06:03:28.782Z,19.39
2019-06-27T06:05:57.960Z,19.34
2019-06-27T06:08:26.120Z,19.37
2019-06-27T06:10:56.156Z,19.36
2019-06-27T06:13:26.314Z,19.37
2019-06-27T06:15:55.620Z,19.39
2019-06-27T06:18:23.711Z,19.43
2019-06-27T06:20:53.101Z,19.41
2019-06-27T06:23:23.238Z,19.52
2019-06-27T06:25:53.432Z,19.55
2019-06-27T06:28:22.445Z,19.61
2019-06-27T06:30:52.270Z,19.65
2019-06-27T06:33:23.727Z,19.64
2019-06-27T06:36:00.474Z,19.52
2019-06-27T06:38:31.057Z,19.62
2019-06-27T06:41:01.636Z,19.72
2019-06-27T06:43:33.837Z,19.72
2019-06-27T06:46:02.218Z,19.60
2019-06-27T06:48:31.718Z,19.68
2019-06-27T06:50:59.205Z,19.55
2019-06-27T06:53:27.137Z,19.82
2019-06-27T06:55:54.983Z,19.25
2019-06-27T06:58:22.895Z,19.76
2019-06-27T07:01:01.006Z,19.92
2019-06-27T07:03:19.303Z,20.01
2019-06-27T07:05:48.759Z,20.04
2019-06-27T07:08:16.591Z,20.11
2019-06-27T07:10:45.885Z,20.08
2019-06-27T07:13:13.522Z,20.15
2019-06-27T07:15:41.203Z,20.31
2019-06-27T07:18:09.344Z,19.77
2019-06-27T07:20:37.183Z,20.06
2019-06-27T07:23:05.377Z,20.27
2019-06-27T07:25:33.189Z,20.35
2019-06-27T07:28:01.095Z,20.37
2019-06-27T07:30:28.791Z,20.49
2019-06-27T07:32:57.126Z,20.48
2019-06-27T07:35:25.081Z,20.50
2019-06-27T07:37:52.926Z,20.56
2019-06-27T07:40:20.871Z,20.56
2019-06-27T07:42:48.801Z,20.72
2019-06-27T07:45:16.450Z,20.68
2019-06-27T07:47:44.632Z,20.65
2019-06-27T07:50:12.478Z,20.74
2019-06-27T07:52:40.689Z,20.77
2019-06-27T07:55:08.708Z,20.79
2019-06-27T07:57:36.979Z,20.91
2019-06-27T08:00:06.878Z,20.98
2019-06-27T08:02:35.064Z,21.01
2019-06-27T08:05:02.799Z,21.03
2019-06-27T08:07:30.548Z,21.06
2019-06-27T08:09:59.257Z,21.16
2019-06-27T08:12:27.135Z,21.11
2019-06-27T08:14:54.886Z,21.23
2019-06-27T08:17:22.757Z,21.25
2019-06-27T08:19:51.063Z,21.37
2019-06-27T08:22:19.019Z,21.43
2019-06-27T08:24:46.593Z,21.37
2019-06-27T08:27:14.587Z,21.51
2019-06-27T08:29:43.906Z,21.46
2019-06-27T08:32:11.574Z,21.08
2019-06-27T08:34:39.502Z,20.94
2019-06-27T08:37:07.206Z,21.32
2019-06-27T08:39:35.233Z,21.46
2019-06-27T08:42:07.962Z,21.59
2019-06-27T08:44:35.624Z,21.68
2019-06-27T08:47:03.392Z,21.66
2019-06-27T08:49:31.075Z,21.68
2019-06-27T08:52:01.023Z,21.70
2019-06-27T08:54:28.846Z,21.74
2019-06-27T08:56:56.600Z,21.85
2019-06-27T08:59:24.377Z,21.88
2019-06-27T09:02:07.339Z,21.88
2019-06-27T09:04:22.218Z,21.84
2019-06-27T09:06:50.130Z,21.90
2019-06-27T09:09:18.970Z,21.94
2019-06-27T09:11:46.616Z,21.92
2019-06-27T09:14:14.799Z,21.97
2019-06-27T09:16:46.461Z,22.03
2019-06-27T09:19:10.420Z,22.09
2019-06-27T09:21:38.959Z,21.98
2019-06-27T09:24:06.693Z,21.72
2019-06-27T09:26:34.446Z,21.98
2019-06-27T09:29:02.466Z,21.96
2019-06-27T09:31:30.161Z,21.67
2019-06-27T09:33:57.782Z,21.53
2019-06-27T09:36:25.781Z,22.00
2019-06-27T09:38:54.262Z,22.07
2019-06-27T09:41:23.685Z,22.29
2019-06-27T09:43:51.380Z,22.32
2019-06-27T09:46:19.020Z,21.58
2019-06-27T09:48:47.156Z,21.58
2019-06-27T09:51:15.426Z,21.96
2019-06-27T09:53:47.230Z,22.19
2019-06-27T09:56:15.332Z,22.27
2019-06-27T09:58:43.930Z,22.22
2019-06-27T10:01:11.878Z,22.13
2019-06-27T10:03:39.922Z,22.15
2019-06-27T10:06:07.905Z,22.33
2019-06-27T10:08:36.271Z,22.49
2019-06-27T10:11:04.037Z,22.55
2019-06-27T10:13:31.926Z,22.64
2019-06-27T10:15:59.847Z,21.92
2019-06-27T10:18:29.175Z,21.56
2019-06-27T10:20:57.501Z,22.15
2019-06-27T10:23:25.694Z,22.45
2019-06-27T10:25:54.021Z,22.61
2019-06-27T10:28:23.626Z,22.67
2019-06-27T10:30:52.901Z,22.79
2019-06-27T10:33:22.050Z,22.89
2019-06-27T10:35:50.921Z,22.92
2019-06-27T10:38:18.781Z,22.93
2019-06-27T10:40:49.773Z,23.03
2019-06-27T10:43:18.044Z,23.03
2019-06-27T10:45:45.935Z,23.05
2019-06-27T10:48:13.785Z,23.14
2019-06-27T10:50:42.328Z,23.07
2019-06-27T10:53:10.177Z,23.21
2019-06-27T10:55:38.604Z,23.28
2019-06-27T10:58:07.069Z,22.96
2019-06-27T11:00:34.888Z,22.88
2019-06-27T11:03:14.802Z,23.04
2019-06-27T11:05:31.838Z,23.21
2019-06-27T11:07:59.711Z,23.37
2019-06-27T11:10:27.671Z,23.42
2019-06-27T11:12:58.992Z,23.55
2019-06-27T11:15:28.373Z,23.52
2019-06-27T11:17:56.487Z,23.64
2019-06-27T11:20:25.898Z,23.64
2019-06-27T11:22:54.041Z,23.62
2019-06-27T11:25:21.822Z,23.82
2019-06-27T11:27:50.150Z,23.74
2019-06-27T11:30:20.080Z,23.78
2019-06-27T11:32:52.294Z,23.83
2019-06-27T11:35:23.439Z,23.96
2019-06-27T11:37:58.102Z,23.97
2019-06-27T11:40:28.121Z,24.07
2019-06-27T11:42:57.675Z,24.06
2019-06-27T11:45:27.212Z,23.66
2019-06-27T11:47:58.199Z,23.86
2019-06-27T11:50:32.416Z,23.97
2019-06-27T11:53:01.383Z,24.01
2019-06-27T11:55:37.022Z,24.04
2019-06-27T11:58:11.365Z,24.10
2019-06-27T12:00:39.725Z,24.09
2019-06-27T12:03:08.060Z,24.08
2019-06-27T12:05:36.268Z,24.12
2019-06-27T12:08:05.012Z,24.27
2019-06-27T12:10:33.654Z,24.28
2019-06-27T12:13:05.263Z,24.30
2019-06-27T12:15:35.269Z,24.37
2019-06-27T12:18:06.609Z,24.30
2019-06-27T12:20:35.172Z,24.37
2019-06-27T12:23:03.184Z,24.38
2019-06-27T12:25:33.880Z,24.46
2019-06-27T12:28:02.062Z,24.49
2019-06-27T12:30:29.739Z,24.35
2019-06-27T12:32:57.988Z,24.52
2019-06-27T12:35:28.597Z,24.58
2019-06-27T12:37:57.371Z,24.70
2019-06-27T12:40:25.303Z,24.76
2019-06-27T12:42:53.652Z,24.83
2019-06-27T12:45:22.358Z,24.87
2019-06-27T12:47:50.455Z,24.95
2019-06-27T12:50:18.692Z,24.58
2019-06-27T12:52:46.281Z,24.78
2019-06-27T12:55:14.177Z,25.02
2019-06-27T12:57:42.201Z,25.11
2019-06-27T13:00:12.214Z,25.09
2019-06-27T13:02:40.400Z,25.17
2019-06-27T13:05:10.241Z,25.19
2019-06-27T13:07:41.144Z,25.15
2019-06-27T13:10:08.973Z,25.27
2019-06-27T13:12:42.610Z,25.29
2019-06-27T13:15:13.963Z,25.33
2019-06-27T13:17:49.043Z,25.36
2019-06-27T13:22:59.147Z,25.26
2019-06-27T13:25:27.553Z,25.37
2019-06-27T13:27:55.265Z,25.39
2019-06-27T13:30:23.174Z,25.37
2019-06-27T13:32:51.176Z,25.46
2019-06-27T13:35:19.629Z,25.47
2019-06-27T13:37:51.303Z,25.58
2019-06-27T13:40:19.616Z,25.62
2019-06-27T13:42:48.264Z,25.66
2019-06-27T13:45:16.045Z,25.58
2019-06-27T13:47:46.288Z,25.70
2019-06-27T13:50:20.023Z,25.78
2019-06-27T13:52:48.783Z,25.67
2019-06-27T13:55:16.671Z,25.80
2019-06-27T13:57:44.530Z,25.90
2019-06-27T14:00:12.596Z,25.98
2019-06-27T14:02:41.329Z,25.99
2019-06-27T14:05:11.878Z,26.03
2019-06-27T14:07:40.607Z,25.92
2019-06-27T14:10:09.582Z,26.00
2019-06-27T14:12:37.862Z,25.92
2019-06-27T14:15:06.186Z,25.97
2019-06-27T14:17:35.181Z,26.08
2019-06-27T14:20:03.105Z,26.18
2019-06-27T14:22:34.075Z,26.02
2019-06-27T14:24:59.475Z,26.18
2019-06-27T14:27:32.935Z,26.03
2019-06-27T14:30:00.974Z,26.18
2019-06-27T14:32:30.301Z,26.07
2019-06-27T14:35:19.448Z,26.21
2019-06-27T14:37:49.483Z,26.16
2019-06-27T14:40:18.810Z,26.10
2019-06-27T14:42:48.086Z,26.25
2019-06-27T14:45:16.179Z,26.35
2019-06-27T14:47:44.645Z,26.44
2019-06-27T14:50:12.544Z,26.48
2019-06-27T14:52:40.669Z,26.40
2019-06-27T14:55:08.589Z,26.61
2019-06-27T14:57:37.142Z,26.53
2019-06-27T15:00:05.803Z,26.57
2019-06-27T15:02:33.632Z,26.73
2019-06-27T15:05:01.818Z,26.70
2019-06-27T15:07:30.238Z,26.61
2019-06-27T15:10:00.973Z,26.66
2019-06-27T15:12:31.173Z,26.74
2019-06-27T15:14:59.106Z,26.85
2019-06-27T15:17:27.378Z,26.87
2019-06-27T15:19:59.293Z,27.08
2019-06-27T15:22:26.512Z,27.06
2019-06-27T15:24:54.548Z,27.01
2019-06-27T15:27:22.442Z,27.22
2019-06-27T15:29:50.405Z,27.23
2019-06-27T15:32:18.537Z,27.31
2019-06-27T15:34:48.212Z,27.33
2019-06-27T15:37:17.306Z,27.36
2019-06-27T15:39:45.087Z,27.32
2019-06-27T15:42:14.135Z,27.34
2019-06-27T15:44:42.399Z,27.35
2019-06-27T15:47:10.393Z,27.35
2019-06-27T15:49:38.809Z,27.38
2019-06-27T15:52:07.631Z,27.41
2019-06-27T15:54:39.926Z,27.43
2019-06-27T15:57:08.388Z,27.35
2019-06-27T15:59:37.185Z,27.39
2019-06-27T16:02:07.637Z,27.56
2019-06-27T16:04:35.698Z,27.45
2019-06-27T16:07:04.525Z,27.62
2019-06-27T16:09:34.245Z,27.62
2019-06-27T16:12:04.479Z,27.79
2019-06-27T16:14:35.637Z,27.72
2019-06-27T16:17:03.592Z,27.74
2019-06-27T16:19:34.979Z,27.73
2019-06-27T16:22:05.259Z,27.76
2019-06-27T16:24:33.541Z,27.91
2019-06-27T16:27:02.080Z,27.92
2019-06-27T16:29:30.193Z,27.84
2019-06-27T16:31:59.449Z,27.85
2019-06-27T16:34:28.939Z,27.81
2019-06-27T16:36:54.838Z,28.01
2019-06-27T16:39:22.876Z,27.99
2019-06-27T16:41:54.782Z,27.89
2019-06-27T16:44:23.306Z,27.93
2019-06-27T16:46:51.453Z,27.72
2019-06-27T16:49:19.633Z,28.07
2019-06-27T16:51:48.904Z,28.04
2019-06-27T16:54:16.647Z,27.96
2019-06-27T16:56:45.909Z,27.81
2019-06-27T16:59:14.934Z,27.74
2019-06-27T17:01:44.161Z,27.62
2019-06-27T17:04:13.036Z,27.29
2019-06-27T17:06:42.997Z,27.38
2019-06-27T17:09:10.485Z,26.98
2019-06-27T17:11:40.057Z,27.05
2019-06-27T17:14:08.020Z,26.70
2019-06-27T17:16:38.423Z,26.88
2019-06-27T17:19:06.561Z,26.88
2019-06-27T17:21:34.393Z,26.77
2019-06-27T17:24:02.494Z,26.59
2019-06-27T17:26:32.367Z,26.65
2019-06-27T17:29:00.360Z,26.64
2019-06-27T17:31:28.348Z,26.45
2019-06-27T17:33:56.065Z,26.52
2019-06-27T17:36:23.961Z,26.60
2019-06-27T17:38:52.196Z,26.60
2019-06-27T17:41:20.054Z,26.44
2019-06-27T17:43:48.110Z,26.57
2019-06-27T17:46:19.528Z,26.31
2019-06-27T17:48:47.870Z,26.44
2019-06-27T17:51:15.856Z,26.53
2019-06-27T17:53:45.714Z,26.34
2019-06-27T17:56:13.372Z,26.10
2019-06-27T17:58:42.264Z,25.97
2019-06-27T18:01:10.707Z,26.05
2019-06-27T18:03:41.201Z,25.99
2019-06-27T18:06:09.012Z,25.92
2019-06-27T18:08:38.259Z,25.85
2019-06-27T18:11:06.641Z,25.69
2019-06-27T18:13:34.499Z,25.82
2019-06-27T18:16:04.728Z,25.70
2019-06-27T18:18:33.177Z,25.62
2019-06-27T18:21:01.258Z,25.66
2019-06-27T18:23:30.561Z,25.59
2019-06-27T18:25:59.093Z,25.52
2019-06-27T18:28:27.183Z,25.34
2019-06-27T18:30:56.935Z,25.38
2019-06-27T18:33:25.141Z,25.15
2019-06-27T18:35:56.763Z,25.15
2019-06-27T18:38:26.126Z,24.95
2019-06-27T18:40:53.679Z,24.89
2019-06-27T18:43:21.589Z,24.88
2019-06-27T18:45:49.342Z,24.75
2019-06-27T18:48:17.002Z,24.69
2019-06-27T18:50:45.390Z,24.75
2019-06-27T18:53:12.971Z,24.61
2019-06-27T18:55:40.989Z,24.49
2019-06-27T18:58:09.195Z,24.43
2019-06-27T19:00:38.281Z,24.38
2019-06-27T19:03:06.530Z,24.30
2019-06-27T19:05:35.500Z,24.27
2019-06-27T19:08:03.277Z,24.25
2019-06-27T19:10:31.688Z,24.06
2019-06-27T19:12:59.601Z,24.14
2019-06-27T19:15:28.187Z,24.01
2019-06-27T19:17:58.281Z,24.03
2019-06-27T19:20:28.042Z,24.06
2019-06-27T19:23:04.055Z,23.81
2019-06-27T19:25:32.187Z,23.79
2019-06-27T19:28:00.267Z,23.69
2019-06-27T19:30:29.294Z,23.68
2019-06-27T19:32:58.050Z,23.65
2019-06-27T19:35:26.145Z,23.58
2019-06-27T19:38:02.280Z,23.52
2019-06-27T19:40:22.637Z,23.40
2019-06-27T19:42:51.936Z,23.35
2019-06-27T19:45:19.789Z,23.36
2019-06-27T19:47:47.684Z,23.30
2019-06-27T19:50:15.798Z,23.28
2019-06-27T19:52:44.805Z,23.20
2019-06-27T19:55:14.017Z,23.09
2019-06-27T19:57:42.116Z,23.14
2019-06-27T20:00:10.798Z,23.12
2019-06-27T20:02:38.605Z,23.16
2019-06-27T20:05:08.423Z,23.07
2019-06-27T20:07:36.350Z,22.98
2019-06-27T20:10:05.649Z,22.85
2019-06-27T20:12:33.312Z,22.96
2019-06-27T20:15:02.478Z,22.86
2019-06-27T20:17:30.551Z,22.78
2019-06-27T20:19:58.338Z,22.76
2019-06-27T20:22:25.800Z,22.63
2019-06-27T20:24:53.279Z,22.64
2019-06-27T20:27:20.748Z,22.53
2019-06-27T20:29:48.295Z,22.37
2019-06-27T20:32:16.186Z,22.39
2019-06-27T20:34:43.683Z,22.23
2019-06-27T20:37:11.205Z,22.18
2019-06-27T20:39:38.725Z,22.19
2019-06-27T20:42:06.731Z,22.13
2019-06-27T20:44:34.240Z,22.07
2019-06-27T20:47:01.680Z,22.09
2019-06-27T20:49:29.186Z,21.99
2019-06-27T20:51:56.631Z,22.02
2019-06-27T20:54:24.159Z,21.89
2019-06-27T20:56:51.736Z,21.90
2019-06-27T20:59:19.408Z,21.88
2019-06-27T21:01:46.856Z,21.98
2019-06-27T21:04:14.421Z,21.83
2019-06-27T21:06:42.131Z,21.76
2019-06-27T21:09:09.595Z,21.77
2019-06-27T21:11:37.126Z,21.82
2019-06-27T21:14:04.571Z,21.70
2019-06-27T21:16:32.056Z,21.70
2019-06-27T21:18:59.492Z,21.64
2019-06-27T21:21:26.941Z,21.67
2019-06-27T21:23:54.499Z,21.52
2019-06-27T21:26:21.975Z,21.49
2019-06-27T21:28:49.482Z,21.50
2019-06-27T21:31:16.908Z,21.51
2019-06-27T21:33:44.355Z,21.35
2019-06-27T21:36:11.807Z,21.29
2019-06-27T21:38:39.547Z,21.15
2019-06-27T21:41:07.615Z,21.10
2019-06-27T21:43:38.116Z,21.12
2019-06-27T21:46:05.639Z,21.11
2019-06-27T21:48:34.334Z,21.10
2019-06-27T21:51:03.832Z,21.01
2019-06-27T21:53:31.378Z,21.09
2019-06-27T21:55:58.880Z,20.96
2019-06-27T21:58:26.348Z,21.01
2019-06-27T22:00:53.789Z,20.84
2019-06-27T22:03:21.367Z,20.80
2019-06-27T22:05:49.040Z,20.78
2019-06-27T22:08:16.490Z,20.60
2019-06-27T22:10:44.103Z,20.55
2019-06-27T22:13:11.570Z,20.61
2019-06-27T22:15:39.585Z,20.49
2019-06-27T22:18:07.105Z,20.48
2019-06-27T22:20:34.802Z,20.45
2019-06-27T22:23:02.949Z,20.34
2019-06-27T22:25:40.480Z,20.31
2019-06-27T22:27:57.984Z,20.36
2019-06-27T22:30:25.440Z,20.33
2019-06-27T22:32:53.061Z,20.32
2019-06-27T22:35:20.559Z,20.28
2019-06-27T22:37:53.551Z,20.32
2019-06-27T22:40:26.734Z,20.17
2019-06-27T22:42:59.710Z,20.11
2019-06-27T22:45:32.878Z,20.19
2019-06-27T22:48:05.986Z,20.17
2019-06-27T22:50:34.182Z,20.09
2019-06-27T22:53:03.075Z,19.94
2019-06-27T22:55:30.980Z,19.83
2019-06-27T22:57:58.522Z,19.79
2019-06-27T23:00:26.188Z,19.75
2019-06-27T23:02:53.799Z,19.80
2019-06-27T23:05:22.021Z,19.68
2019-06-27T23:07:49.581Z,19.78
2019-06-27T23:10:17.089Z,19.70
2019-06-27T23:12:44.589Z,19.62
2019-06-27T23:15:12.566Z,19.64
2019-06-27T23:17:40.024Z,19.63
2019-06-27T23:20:07.530Z,19.63
2019-06-27T23:22:35.000Z,19.54
2019-06-27T23:25:02.527Z,19.53
2019-06-27T23:27:31.200Z,19.55
2019-06-27T23:29:58.967Z,19.57
2019-06-27T23:32:26.473Z,19.50
2019-06-27T23:34:53.932Z,19.41
2019-06-27T23:37:21.439Z,19.37
2019-06-27T23:39:48.960Z,19.44
2019-06-27T23:42:16.380Z,19.36
2019-06-27T23:44:43.939Z,19.35
2019-06-27T23:47:11.413Z,19.29
2019-06-27T23:49:38.871Z,19.29
2019-06-27T23:52:06.328Z,19.31
2019-06-27T23:54:33.784Z,19.28
2019-06-27T23:57:01.268Z,19.36
2019-06-27T23:59:28.711Z,19.32
